KDEW

Deer Park Airport

Deer Park, Washington, USA
METAR KDEW 201653Z AUTO 04004KT 10SM CLR 10/03 A3026 RMK AO2 SLP257 T01000028
Observed Flight Rules
Oct-20 @ 16:53 UTC (37 minutes ago) Visual Flight Rules
Wind Visibility Clouds
40° at 4 knots 10 miles
  • Clear skies
Temperatures Readings
Current 10°C / 50°F
Dewpoint 3°C / 37°F
Humidity 62%
Altimeter 30.26" Hg
Pressure 1025.7 hPa
Elevation 674
METAR KDEW 201653Z AUTO 04004KT 10SM CLR 10/03 A3026 RMK AO2 SLP257 T01000028
Observed Flight Rules
Oct-20 @ 16:53 UTC
(37 minutes ago)
VFR
Wind Visibility
40° at 4 knots 10 miles
Clouds
  • Clear skies
Temperature Dewpoint
10°C / 50°F 3°C / 37°F
Humidity Altimeter Pressure
62% 30.26" Hg 1025.7 hPa